Las Vegas, Nevada
Current Conditions -  °F | °C
As of 12:56 PM on Thursday 23 Oct 2014 (Local Time) from KLAS Reporting Station
Scattered Clouds Scattered Clouds  
Wind Chill: 81°   Ceiling: Unl
Heat Index: 81°   Visibility: 10mi
Dew Point: 33°   Wind: 3mph
Humidity: 18%   Direction: NA
Pressure: 30.01"   Gusts: NA
Location:  36.17°N, 115.13°W
Report Text: KLAS 231956Z VRB03KT 10SM SCT250 27/01 A3001 RMK AO2 SLP144 T02720006
Loading
Personal Weather Stations






























Interactive Weather Map
Tropical Storm Tracking
New forecast layout! Learn more

10-Day Weather Forecast

Advertisements
Track Severe Weather on mobile